sensor_id;sensor_type;location;lat;lon;timestamp;temperature;humidity
11647;DHT22;5880;52.342;9.662;2023-12-20T00:00:25;10.60;78.30
11647;DHT22;5880;52.342;9.662;2023-12-20T00:02:51;10.60;78.20
11647;DHT22;5880;52.342;9.662;2023-12-20T00:05:17;10.60;78.20
11647;DHT22;5880;52.342;9.662;2023-12-20T00:07:42;10.60;78.00
11647;DHT22;5880;52.342;9.662;2023-12-20T00:10:08;10.60;77.90
11647;DHT22;5880;52.342;9.662;2023-12-20T00:12:34;10.50;77.90
11647;DHT22;5880;52.342;9.662;2023-12-20T00:15:00;10.50;77.90
11647;DHT22;5880;52.342;9.662;2023-12-20T00:17:25;10.40;77.70
11647;DHT22;5880;52.342;9.662;2023-12-20T00:19:51;10.40;77.70
11647;DHT22;5880;52.342;9.662;2023-12-20T00:22:17;10.40;77.70
11647;DHT22;5880;52.342;9.662;2023-12-20T00:24:42;10.30;77.70
11647;DHT22;5880;52.342;9.662;2023-12-20T00:27:08;10.30;77.70
11647;DHT22;5880;52.342;9.662;2023-12-20T00:29:33;10.30;77.70
11647;DHT22;5880;52.342;9.662;2023-12-20T00:31:59;10.20;77.60
11647;DHT22;5880;52.342;9.662;2023-12-20T00:34:25;10.30;77.70
11647;DHT22;5880;52.342;9.662;2023-12-20T00:36:50;10.20;77.60
11647;DHT22;5880;52.342;9.662;2023-12-20T00:39:16;10.10;77.60
11647;DHT22;5880;52.342;9.662;2023-12-20T00:41:42;10.10;77.70
11647;DHT22;5880;52.342;9.662;2023-12-20T00:44:07;10.10;77.70
11647;DHT22;5880;52.342;9.662;2023-12-20T00:46:33;10.00;77.60
11647;DHT22;5880;52.342;9.662;2023-12-20T00:48:58;10.10;77.60
11647;DHT22;5880;52.342;9.662;2023-12-20T00:51:24;10.00;77.50
11647;DHT22;5880;52.342;9.662;2023-12-20T00:53:50;10.00;77.60
11647;DHT22;5880;52.342;9.662;2023-12-20T00:56:20;10.00;77.60
11647;DHT22;5880;52.342;9.662;2023-12-20T00:58:46;10.00;77.60
11647;DHT22;5880;52.342;9.662;2023-12-20T01:01:11;10.00;77.50
11647;DHT22;5880;52.342;9.662;2023-12-20T01:03:38;9.90;77.50
11647;DHT22;5880;52.342;9.662;2023-12-20T01:06:04;9.90;77.50
11647;DHT22;5880;52.342;9.662;2023-12-20T01:08:30;10.00;77.50
11647;DHT22;5880;52.342;9.662;2023-12-20T01:10:56;9.90;77.60
11647;DHT22;5880;52.342;9.662;2023-12-20T01:13:21;9.80;77.50
11647;DHT22;5880;52.342;9.662;2023-12-20T01:15:47;9.80;77.40
11647;DHT22;5880;52.342;9.662;2023-12-20T01:18:13;9.80;77.50
11647;DHT22;5880;52.342;9.662;2023-12-20T01:20:40;9.80;77.50
11647;DHT22;5880;52.342;9.662;2023-12-20T01:23:05;9.80;77.50
11647;DHT22;5880;52.342;9.662;2023-12-20T01:25:31;9.70;77.50
11647;DHT22;5880;52.342;9.662;2023-12-20T01:27:57;9.70;77.50
11647;DHT22;5880;52.342;9.662;2023-12-20T01:30:22;9.70;77.60
11647;DHT22;5880;52.342;9.662;2023-12-20T01:32:48;9.70;77.70
11647;DHT22;5880;52.342;9.662;2023-12-20T01:35:13;9.70;77.80
11647;DHT22;5880;52.342;9.662;2023-12-20T01:37:39;9.70;77.90
11647;DHT22;5880;52.342;9.662;2023-12-20T01:40:05;9.70;77.90
11647;DHT22;5880;52.342;9.662;2023-12-20T01:42:31;9.70;77.90
11647;DHT22;5880;52.342;9.662;2023-12-20T01:44:57;9.70;78.00
11647;DHT22;5880;52.342;9.662;2023-12-20T01:47:23;9.70;78.00
11647;DHT22;5880;52.342;9.662;2023-12-20T01:49:49;9.70;78.10
11647;DHT22;5880;52.342;9.662;2023-12-20T01:52:16;9.70;78.10
11647;DHT22;5880;52.342;9.662;2023-12-20T01:54:43;9.70;78.10
11647;DHT22;5880;52.342;9.662;2023-12-20T01:57:09;9.70;78.10
11647;DHT22;5880;52.342;9.662;2023-12-20T01:59:35;9.70;77.90
11647;DHT22;5880;52.342;9.662;2023-12-20T02:02:02;9.60;77.50
11647;DHT22;5880;52.342;9.662;2023-12-20T02:04:29;9.60;77.60
11647;DHT22;5880;52.342;9.662;2023-12-20T02:06:55;9.60;77.60
11647;DHT22;5880;52.342;9.662;2023-12-20T02:09:22;9.60;77.60
11647;DHT22;5880;52.342;9.662;2023-12-20T02:11:49;9.60;77.40
11647;DHT22;5880;52.342;9.662;2023-12-20T02:14:14;9.60;77.20
11647;DHT22;5880;52.342;9.662;2023-12-20T02:16:40;9.60;77.10
11647;DHT22;5880;52.342;9.662;2023-12-20T02:19:13;9.60;77.00
11647;DHT22;5880;52.342;9.662;2023-12-20T02:21:40;9.50;76.90
11647;DHT22;5880;52.342;9.662;2023-12-20T02:24:05;9.50;76.80
11647;DHT22;5880;52.342;9.662;2023-12-20T02:26:34;9.40;76.70
11647;DHT22;5880;52.342;9.662;2023-12-20T02:29:00;9.40;76.80
11647;DHT22;5880;52.342;9.662;2023-12-20T02:31:26;9.40;76.90
11647;DHT22;5880;52.342;9.662;2023-12-20T02:33:52;9.30;76.90
11647;DHT22;5880;52.342;9.662;2023-12-20T02:36:18;9.20;76.80
11647;DHT22;5880;52.342;9.662;2023-12-20T02:38:43;9.30;77.00
11647;DHT22;5880;52.342;9.662;2023-12-20T02:41:09;9.20;76.80
11647;DHT22;5880;52.342;9.662;2023-12-20T02:43:35;9.20;76.90
11647;DHT22;5880;52.342;9.662;2023-12-20T02:46:00;9.10;76.80
11647;DHT22;5880;52.342;9.662;2023-12-20T02:48:26;9.10;76.90
11647;DHT22;5880;52.342;9.662;2023-12-20T02:50:51;9.10;77.00
11647;DHT22;5880;52.342;9.662;2023-12-20T02:53:17;9.00;77.00
11647;DHT22;5880;52.342;9.662;2023-12-20T02:55:43;9.00;77.10
11647;DHT22;5880;52.342;9.662;2023-12-20T02:58:09;9.00;77.00
11647;DHT22;5880;52.342;9.662;2023-12-20T03:00:34;9.00;77.00
11647;DHT22;5880;52.342;9.662;2023-12-20T03:03:00;9.00;77.00
11647;DHT22;5880;52.342;9.662;2023-12-20T03:05:25;9.00;77.10
11647;DHT22;5880;52.342;9.662;2023-12-20T03:07:51;8.90;77.10
11647;DHT22;5880;52.342;9.662;2023-12-20T03:10:18;8.90;77.10
11647;DHT22;5880;52.342;9.662;2023-12-20T03:12:44;8.90;77.10
11647;DHT22;5880;52.342;9.662;2023-12-20T03:15:10;8.90;77.10
11647;DHT22;5880;52.342;9.662;2023-12-20T03:17:36;8.90;77.10
11647;DHT22;5880;52.342;9.662;2023-12-20T03:20:02;8.90;77.00
11647;DHT22;5880;52.342;9.662;2023-12-20T03:22:27;8.90;77.10
11647;DHT22;5880;52.342;9.662;2023-12-20T03:24:53;8.80;77.10
11647;DHT22;5880;52.342;9.662;2023-12-20T03:27:19;8.90;77.20
11647;DHT22;5880;52.342;9.662;2023-12-20T03:29:44;9.00;77.20
11647;DHT22;5880;52.342;9.662;2023-12-20T03:32:10;8.80;77.00
11647;DHT22;5880;52.342;9.662;2023-12-20T03:34:36;8.80;76.80
11647;DHT22;5880;52.342;9.662;2023-12-20T03:37:01;8.80;76.80
11647;DHT22;5880;52.342;9.662;2023-12-20T03:39:27;8.80;76.90
11647;DHT22;5880;52.342;9.662;2023-12-20T03:41:53;8.80;76.80
11647;DHT22;5880;52.342;9.662;2023-12-20T03:44:18;8.80;76.80
11647;DHT22;5880;52.342;9.662;2023-12-20T03:46:44;8.80;76.80
11647;DHT22;5880;52.342;9.662;2023-12-20T03:49:11;8.80;77.00
11647;DHT22;5880;52.342;9.662;2023-12-20T03:51:36;8.70;77.10
11647;DHT22;5880;52.342;9.662;2023-12-20T03:54:02;8.70;77.20
11647;DHT22;5880;52.342;9.662;2023-12-20T03:56:28;8.70;77.30
11647;DHT22;5880;52.342;9.662;2023-12-20T03:58:54;8.70;78.20
11647;DHT22;5880;52.342;9.662;2023-12-20T04:01:19;8.70;77.50
11647;DHT22;5880;52.342;9.662;2023-12-20T04:03:45;8.70;77.30
11647;DHT22;5880;52.342;9.662;2023-12-20T04:06:16;8.70;77.40
11647;DHT22;5880;52.342;9.662;2023-12-20T04:08:45;8.70;77.10
11647;DHT22;5880;52.342;9.662;2023-12-20T04:11:10;8.90;77.60
11647;DHT22;5880;52.342;9.662;2023-12-20T04:13:36;8.80;77.70
11647;DHT22;5880;52.342;9.662;2023-12-20T04:16:02;8.70;77.80
11647;DHT22;5880;52.342;9.662;2023-12-20T04:18:27;8.80;77.70
11647;DHT22;5880;52.342;9.662;2023-12-20T04:20:53;8.80;77.60
11647;DHT22;5880;52.342;9.662;2023-12-20T04:23:19;8.80;77.70
11647;DHT22;5880;52.342;9.662;2023-12-20T04:25:45;8.80;77.70
11647;DHT22;5880;52.342;9.662;2023-12-20T04:28:10;8.90;78.00
11647;DHT22;5880;52.342;9.662;2023-12-20T04:30:36;8.90;77.90
11647;DHT22;5880;52.342;9.662;2023-12-20T04:33:02;9.00;77.60
11647;DHT22;5880;52.342;9.662;2023-12-20T04:35:27;9.00;77.50
11647;DHT22;5880;52.342;9.662;2023-12-20T04:37:53;9.00;77.50
11647;DHT22;5880;52.342;9.662;2023-12-20T04:40:19;9.00;77.60
11647;DHT22;5880;52.342;9.662;2023-12-20T04:42:45;9.00;77.60
11647;DHT22;5880;52.342;9.662;2023-12-20T04:45:11;9.10;77.40
11647;DHT22;5880;52.342;9.662;2023-12-20T04:47:38;9.00;77.30
11647;DHT22;5880;52.342;9.662;2023-12-20T04:50:05;9.10;77.50
11647;DHT22;5880;52.342;9.662;2023-12-20T04:52:31;9.10;77.50
11647;DHT22;5880;52.342;9.662;2023-12-20T04:54:56;9.20;77.20
11647;DHT22;5880;52.342;9.662;2023-12-20T04:57:22;9.10;77.30
11647;DHT22;5880;52.342;9.662;2023-12-20T04:59:48;9.10;77.50
11647;DHT22;5880;52.342;9.662;2023-12-20T05:02:13;9.10;77.60
11647;DHT22;5880;52.342;9.662;2023-12-20T05:04:39;9.10;77.70
11647;DHT22;5880;52.342;9.662;2023-12-20T05:07:05;9.10;77.70
11647;DHT22;5880;52.342;9.662;2023-12-20T05:09:30;9.20;77.70
11647;DHT22;5880;52.342;9.662;2023-12-20T05:11:56;9.20;77.50
11647;DHT22;5880;52.342;9.662;2023-12-20T05:14:22;9.20;77.50
11647;DHT22;5880;52.342;9.662;2023-12-20T05:16:47;9.20;77.70
11647;DHT22;5880;52.342;9.662;2023-12-20T05:19:13;9.40;77.70
11647;DHT22;5880;52.342;9.662;2023-12-20T05:21:39;9.30;77.50
11647;DHT22;5880;52.342;9.662;2023-12-20T05:24:05;9.30;77.50
11647;DHT22;5880;52.342;9.662;2023-12-20T05:26:31;9.30;77.60
11647;DHT22;5880;52.342;9.662;2023-12-20T05:28:56;9.30;77.70
11647;DHT22;5880;52.342;9.662;2023-12-20T05:31:22;9.30;78.30
11647;DHT22;5880;52.342;9.662;2023-12-20T05:33:47;9.40;77.60
11647;DHT22;5880;52.342;9.662;2023-12-20T05:36:13;9.40;77.50
11647;DHT22;5880;52.342;9.662;2023-12-20T05:38:40;9.40;77.60
11647;DHT22;5880;52.342;9.662;2023-12-20T05:41:06;9.40;77.50
11647;DHT22;5880;52.342;9.662;2023-12-20T05:43:31;9.40;77.50
11647;DHT22;5880;52.342;9.662;2023-12-20T05:45:58;9.40;77.20
11647;DHT22;5880;52.342;9.662;2023-12-20T05:48:23;9.40;77.40
11647;DHT22;5880;52.342;9.662;2023-12-20T05:50:49;9.40;77.40
11647;DHT22;5880;52.342;9.662;2023-12-20T05:53:14;9.40;77.20
11647;DHT22;5880;52.342;9.662;2023-12-20T05:55:40;9.40;77.20
11647;DHT22;5880;52.342;9.662;2023-12-20T05:58:06;9.40;77.40
11647;DHT22;5880;52.342;9.662;2023-12-20T06:00:31;9.40;77.50
11647;DHT22;5880;52.342;9.662;2023-12-20T06:02:57;9.40;77.30
11647;DHT22;5880;52.342;9.662;2023-12-20T06:05:22;9.50;77.20
11647;DHT22;5880;52.342;9.662;2023-12-20T06:07:48;9.40;77.10
11647;DHT22;5880;52.342;9.662;2023-12-20T06:10:16;9.30;77.30
11647;DHT22;5880;52.342;9.662;2023-12-20T06:12:42;9.40;77.10
11647;DHT22;5880;52.342;9.662;2023-12-20T06:15:08;9.40;76.90
11647;DHT22;5880;52.342;9.662;2023-12-20T06:17:33;9.30;76.60
11647;DHT22;5880;52.342;9.662;2023-12-20T06:20:00;9.30;76.40
11647;DHT22;5880;52.342;9.662;2023-12-20T06:22:26;9.30;76.50
11647;DHT22;5880;52.342;9.662;2023-12-20T06:24:52;9.30;76.80
11647;DHT22;5880;52.342;9.662;2023-12-20T06:27:17;9.20;76.80
11647;DHT22;5880;52.342;9.662;2023-12-20T06:29:43;9.20;76.80
11647;DHT22;5880;52.342;9.662;2023-12-20T06:32:10;9.20;76.80
11647;DHT22;5880;52.342;9.662;2023-12-20T06:34:35;9.30;77.00
11647;DHT22;5880;52.342;9.662;2023-12-20T06:37:01;9.40;77.30
11647;DHT22;5880;52.342;9.662;2023-12-20T06:39:27;9.30;77.40
11647;DHT22;5880;52.342;9.662;2023-12-20T06:41:53;9.30;77.40
11647;DHT22;5880;52.342;9.662;2023-12-20T06:44:19;9.30;77.40
11647;DHT22;5880;52.342;9.662;2023-12-20T06:46:44;9.20;77.30
11647;DHT22;5880;52.342;9.662;2023-12-20T06:49:10;9.30;77.20
11647;DHT22;5880;52.342;9.662;2023-12-20T06:51:35;9.30;76.90
11647;DHT22;5880;52.342;9.662;2023-12-20T06:54:01;9.30;76.80
11647;DHT22;5880;52.342;9.662;2023-12-20T06:56:27;9.30;76.60
11647;DHT22;5880;52.342;9.662;2023-12-20T06:58:53;9.30;76.50
11647;DHT22;5880;52.342;9.662;2023-12-20T07:01:19;9.20;76.30
11647;DHT22;5880;52.342;9.662;2023-12-20T07:03:45;9.20;76.20
11647;DHT22;5880;52.342;9.662;2023-12-20T07:06:10;9.30;76.20
11647;DHT22;5880;52.342;9.662;2023-12-20T07:08:36;9.20;76.50
11647;DHT22;5880;52.342;9.662;2023-12-20T07:11:02;9.10;76.80
11647;DHT22;5880;52.342;9.662;2023-12-20T07:13:27;9.10;76.90
11647;DHT22;5880;52.342;9.662;2023-12-20T07:15:53;9.10;77.00
11647;DHT22;5880;52.342;9.662;2023-12-20T07:18:19;9.10;76.80
11647;DHT22;5880;52.342;9.662;2023-12-20T07:20:44;9.10;76.90
11647;DHT22;5880;52.342;9.662;2023-12-20T07:23:10;9.10;76.30
11647;DHT22;5880;52.342;9.662;2023-12-20T07:25:36;9.10;76.50
11647;DHT22;5880;52.342;9.662;2023-12-20T07:28:02;9.10;76.40
11647;DHT22;5880;52.342;9.662;2023-12-20T07:30:28;9.10;75.80
11647;DHT22;5880;52.342;9.662;2023-12-20T07:32:53;9.10;76.70
11647;DHT22;5880;52.342;9.662;2023-12-20T07:35:19;9.10;76.90
11647;DHT22;5880;52.342;9.662;2023-12-20T07:37:45;9.10;77.00
11647;DHT22;5880;52.342;9.662;2023-12-20T07:40:11;9.30;77.30
11647;DHT22;5880;52.342;9.662;2023-12-20T07:42:36;9.10;77.20
11647;DHT22;5880;52.342;9.662;2023-12-20T07:45:03;9.10;77.40
11647;DHT22;5880;52.342;9.662;2023-12-20T07:47:28;9.20;77.10
11647;DHT22;5880;52.342;9.662;2023-12-20T07:49:54;9.20;77.00
11647;DHT22;5880;52.342;9.662;2023-12-20T07:52:20;9.20;77.00
11647;DHT22;5880;52.342;9.662;2023-12-20T07:54:48;9.20;76.90
11647;DHT22;5880;52.342;9.662;2023-12-20T07:57:14;9.20;76.80
11647;DHT22;5880;52.342;9.662;2023-12-20T07:59:40;9.20;76.90
11647;DHT22;5880;52.342;9.662;2023-12-20T08:02:05;9.30;77.10
11647;DHT22;5880;52.342;9.662;2023-12-20T08:04:32;9.20;76.90
11647;DHT22;5880;52.342;9.662;2023-12-20T08:06:58;9.20;77.10
11647;DHT22;5880;52.342;9.662;2023-12-20T08:09:23;9.20;77.20
11647;DHT22;5880;52.342;9.662;2023-12-20T08:11:49;9.20;77.10
11647;DHT22;5880;52.342;9.662;2023-12-20T08:14:15;9.20;76.90
11647;DHT22;5880;52.342;9.662;2023-12-20T08:16:41;9.20;77.30
11647;DHT22;5880;52.342;9.662;2023-12-20T08:19:07;9.20;77.40
11647;DHT22;5880;52.342;9.662;2023-12-20T08:21:33;9.20;77.40
11647;DHT22;5880;52.342;9.662;2023-12-20T08:23:59;9.20;77.30
11647;DHT22;5880;52.342;9.662;2023-12-20T08:26:26;9.20;77.40
11647;DHT22;5880;52.342;9.662;2023-12-20T08:28:52;9.30;77.50
11647;DHT22;5880;52.342;9.662;2023-12-20T08:31:18;9.30;77.30
11647;DHT22;5880;52.342;9.662;2023-12-20T08:33:45;9.30;77.30
11647;DHT22;5880;52.342;9.662;2023-12-20T08:36:12;9.30;77.50
11647;DHT22;5880;52.342;9.662;2023-12-20T08:38:38;9.30;77.50
11647;DHT22;5880;52.342;9.662;2023-12-20T08:41:04;9.30;77.60
11647;DHT22;5880;52.342;9.662;2023-12-20T08:43:34;9.30;77.50
11647;DHT22;5880;52.342;9.662;2023-12-20T08:46:01;9.40;77.40
11647;DHT22;5880;52.342;9.662;2023-12-20T08:48:28;9.40;77.50
11647;DHT22;5880;52.342;9.662;2023-12-20T08:50:54;9.40;77.60
11647;DHT22;5880;52.342;9.662;2023-12-20T08:53:19;9.40;77.60
11647;DHT22;5880;52.342;9.662;2023-12-20T08:55:46;9.40;77.50
11647;DHT22;5880;52.342;9.662;2023-12-20T08:58:12;9.40;77.50
11647;DHT22;5880;52.342;9.662;2023-12-20T09:00:37;9.50;77.60
11647;DHT22;5880;52.342;9.662;2023-12-20T09:03:04;9.50;77.50
11647;DHT22;5880;52.342;9.662;2023-12-20T09:05:30;9.50;77.60
11647;DHT22;5880;52.342;9.662;2023-12-20T09:07:56;9.50;77.60
11647;DHT22;5880;52.342;9.662;2023-12-20T09:10:21;9.50;77.60
11647;DHT22;5880;52.342;9.662;2023-12-20T09:12:51;9.60;77.10
11647;DHT22;5880;52.342;9.662;2023-12-20T09:15:22;9.50;77.40
11647;DHT22;5880;52.342;9.662;2023-12-20T09:17:48;9.50;77.40
11647;DHT22;5880;52.342;9.662;2023-12-20T09:20:15;9.50;77.70
11647;DHT22;5880;52.342;9.662;2023-12-20T09:22:40;9.50;78.00
11647;DHT22;5880;52.342;9.662;2023-12-20T09:25:07;9.70;78.20
11647;DHT22;5880;52.342;9.662;2023-12-20T09:27:35;9.60;78.20
11647;DHT22;5880;52.342;9.662;2023-12-20T09:30:01;9.60;77.90
11647;DHT22;5880;52.342;9.662;2023-12-20T09:32:26;9.80;78.10
11647;DHT22;5880;52.342;9.662;2023-12-20T09:34:52;9.70;77.90
11647;DHT22;5880;52.342;9.662;2023-12-20T09:37:17;9.70;77.90
11647;DHT22;5880;52.342;9.662;2023-12-20T09:39:43;9.80;77.90
11647;DHT22;5880;52.342;9.662;2023-12-20T09:42:11;9.80;78.00
11647;DHT22;5880;52.342;9.662;2023-12-20T09:44:42;9.80;77.80
11647;DHT22;5880;52.342;9.662;2023-12-20T09:47:10;9.80;77.80
11647;DHT22;5880;52.342;9.662;2023-12-20T09:49:36;9.90;77.80
11647;DHT22;5880;52.342;9.662;2023-12-20T09:52:05;9.90;77.70
11647;DHT22;5880;52.342;9.662;2023-12-20T09:54:33;9.90;77.60
11647;DHT22;5880;52.342;9.662;2023-12-20T09:56:58;9.90;78.30
11647;DHT22;5880;52.342;9.662;2023-12-20T09:59:24;10.00;77.50
11647;DHT22;5880;52.342;9.662;2023-12-20T10:01:50;10.00;77.80
11647;DHT22;5880;52.342;9.662;2023-12-20T10:04:20;10.00;77.70
11647;DHT22;5880;52.342;9.662;2023-12-20T10:06:46;9.90;77.50
11647;DHT22;5880;52.342;9.662;2023-12-20T10:09:12;10.00;77.50
11647;DHT22;5880;52.342;9.662;2023-12-20T10:11:39;10.00;77.50
11647;DHT22;5880;52.342;9.662;2023-12-20T10:14:06;10.00;77.40
11647;DHT22;5880;52.342;9.662;2023-12-20T10:16:33;10.00;77.70
11647;DHT22;5880;52.342;9.662;2023-12-20T10:19:00;10.00;77.60
11647;DHT22;5880;52.342;9.662;2023-12-20T10:21:29;10.10;77.70
11647;DHT22;5880;52.342;9.662;2023-12-20T10:23:57;10.10;77.30
11647;DHT22;5880;52.342;9.662;2023-12-20T10:26:26;10.20;77.20
11647;DHT22;5880;52.342;9.662;2023-12-20T10:28:56;10.10;76.60
11647;DHT22;5880;52.342;9.662;2023-12-20T10:31:30;10.10;76.80
11647;DHT22;5880;52.342;9.662;2023-12-20T10:34:01;10.10;77.00
11647;DHT22;5880;52.342;9.662;2023-12-20T10:36:32;10.10;77.30
11647;DHT22;5880;52.342;9.662;2023-12-20T10:38:58;10.10;77.30
11647;DHT22;5880;52.342;9.662;2023-12-20T10:41:30;10.10;77.30
11647;DHT22;5880;52.342;9.662;2023-12-20T10:44:02;10.10;77.30
11647;DHT22;5880;52.342;9.662;2023-12-20T10:46:30;10.10;77.30
11647;DHT22;5880;52.342;9.662;2023-12-20T10:48:58;10.20;77.40
11647;DHT22;5880;52.342;9.662;2023-12-20T10:51:24;10.20;77.20
11647;DHT22;5880;52.342;9.662;2023-12-20T10:53:55;10.20;77.30
11647;DHT22;5880;52.342;9.662;2023-12-20T10:56:22;10.20;77.30
11647;DHT22;5880;52.342;9.662;2023-12-20T10:58:51;10.20;77.30
11647;DHT22;5880;52.342;9.662;2023-12-20T11:01:18;10.20;77.30
11647;DHT22;5880;52.342;9.662;2023-12-20T11:03:49;10.20;77.30
11647;DHT22;5880;52.342;9.662;2023-12-20T11:06:33;10.20;77.30
11647;DHT22;5880;52.342;9.662;2023-12-20T11:09:21;10.30;77.30
11647;DHT22;5880;52.342;9.662;2023-12-20T11:17:12;10.30;76.50
11647;DHT22;5880;52.342;9.662;2023-12-20T11:22:20;10.30;77.10
11647;DHT22;5880;52.342;9.662;2023-12-20T11:24:47;10.50;77.20
11647;DHT22;5880;52.342;9.662;2023-12-20T11:27:14;10.40;77.20
11647;DHT22;5880;52.342;9.662;2023-12-20T11:29:40;10.40;77.30
11647;DHT22;5880;52.342;9.662;2023-12-20T11:35:01;10.40;76.40
11647;DHT22;5880;52.342;9.662;2023-12-20T11:37:42;10.40;76.70
11647;DHT22;5880;52.342;9.662;2023-12-20T11:40:12;10.40;76.80
11647;DHT22;5880;52.342;9.662;2023-12-20T11:42:41;10.40;76.60
11647;DHT22;5880;52.342;9.662;2023-12-20T11:45:12;10.30;76.50
11647;DHT22;5880;52.342;9.662;2023-12-20T11:47:42;10.30;76.50
11647;DHT22;5880;52.342;9.662;2023-12-20T11:50:10;10.20;76.30
11647;DHT22;5880;52.342;9.662;2023-12-20T11:52:36;10.20;75.80
11647;DHT22;5880;52.342;9.662;2023-12-20T11:55:02;10.10;75.00
11647;DHT22;5880;52.342;9.662;2023-12-20T11:57:29;10.00;74.80
11647;DHT22;5880;52.342;9.662;2023-12-20T11:59:55;9.90;74.70
11647;DHT22;5880;52.342;9.662;2023-12-20T12:02:21;9.80;74.80
11647;DHT22;5880;52.342;9.662;2023-12-20T12:04:49;9.70;74.50
11647;DHT22;5880;52.342;9.662;2023-12-20T12:07:16;9.60;74.70
11647;DHT22;5880;52.342;9.662;2023-12-20T12:09:43;9.40;75.00
11647;DHT22;5880;52.342;9.662;2023-12-20T12:12:10;9.40;75.20
11647;DHT22;5880;52.342;9.662;2023-12-20T12:14:37;9.30;74.80
11647;DHT22;5880;52.342;9.662;2023-12-20T12:17:04;9.20;75.30
11647;DHT22;5880;52.342;9.662;2023-12-20T12:19:30;9.10;75.60
11647;DHT22;5880;52.342;9.662;2023-12-20T12:22:14;9.10;76.00
11647;DHT22;5880;52.342;9.662;2023-12-20T12:24:43;9.00;76.00
11647;DHT22;5880;52.342;9.662;2023-12-20T12:27:10;9.00;76.30
11647;DHT22;5880;52.342;9.662;2023-12-20T12:29:37;9.00;76.50
11647;DHT22;5880;52.342;9.662;2023-12-20T12:32:09;9.00;76.40
11647;DHT22;5880;52.342;9.662;2023-12-20T12:34:36;9.00;76.50
11647;DHT22;5880;52.342;9.662;2023-12-20T12:37:03;9.00;76.40
11647;DHT22;5880;52.342;9.662;2023-12-20T12:39:29;9.00;76.30
11647;DHT22;5880;52.342;9.662;2023-12-20T12:41:56;9.00;76.40
11647;DHT22;5880;52.342;9.662;2023-12-20T12:44:22;9.00;76.30
11647;DHT22;5880;52.342;9.662;2023-12-20T12:46:51;8.90;76.60
11647;DHT22;5880;52.342;9.662;2023-12-20T12:49:19;8.90;76.00
11647;DHT22;5880;52.342;9.662;2023-12-20T12:51:47;8.90;76.80
11647;DHT22;5880;52.342;9.662;2023-12-20T12:54:12;8.90;75.80
11647;DHT22;5880;52.342;9.662;2023-12-20T12:56:39;8.90;75.60
11647;DHT22;5880;52.342;9.662;2023-12-20T12:59:05;8.90;75.90
11647;DHT22;5880;52.342;9.662;2023-12-20T13:01:31;8.90;76.10
11647;DHT22;5880;52.342;9.662;2023-12-20T13:03:57;8.90;76.20
11647;DHT22;5880;52.342;9.662;2023-12-20T13:06:23;8.90;76.20
11647;DHT22;5880;52.342;9.662;2023-12-20T13:08:49;8.90;76.40
11647;DHT22;5880;52.342;9.662;2023-12-20T13:11:15;8.90;76.50
11647;DHT22;5880;52.342;9.662;2023-12-20T13:13:40;8.90;76.70
11647;DHT22;5880;52.342;9.662;2023-12-20T13:16:06;8.90;76.80
11647;DHT22;5880;52.342;9.662;2023-12-20T13:18:32;9.00;76.80
11647;DHT22;5880;52.342;9.662;2023-12-20T13:20:58;9.00;76.80
11647;DHT22;5880;52.342;9.662;2023-12-20T13:23:24;9.00;77.00
11647;DHT22;5880;52.342;9.662;2023-12-20T13:25:50;9.00;77.10
11647;DHT22;5880;52.342;9.662;2023-12-20T13:28:15;9.10;77.20
11647;DHT22;5880;52.342;9.662;2023-12-20T13:30:41;9.10;77.30
11647;DHT22;5880;52.342;9.662;2023-12-20T13:33:07;9.20;77.30
11647;DHT22;5880;52.342;9.662;2023-12-20T13:35:33;9.20;77.40
11647;DHT22;5880;52.342;9.662;2023-12-20T13:38:00;9.20;77.10
11647;DHT22;5880;52.342;9.662;2023-12-20T13:40:26;9.20;77.20
11647;DHT22;5880;52.342;9.662;2023-12-20T13:42:52;9.30;77.30
11647;DHT22;5880;52.342;9.662;2023-12-20T13:45:17;9.30;77.20
11647;DHT22;5880;52.342;9.662;2023-12-20T13:47:43;9.40;77.90
11647;DHT22;5880;52.342;9.662;2023-12-20T13:50:09;9.40;77.10
11647;DHT22;5880;52.342;9.662;2023-12-20T13:52:35;9.40;77.20
11647;DHT22;5880;52.342;9.662;2023-12-20T13:55:01;9.40;77.00
11647;DHT22;5880;52.342;9.662;2023-12-20T13:57:27;9.40;77.10
11647;DHT22;5880;52.342;9.662;2023-12-20T13:59:55;9.40;77.20
11647;DHT22;5880;52.342;9.662;2023-12-20T14:02:23;9.40;77.00
11647;DHT22;5880;52.342;9.662;2023-12-20T14:04:48;9.50;77.10
11647;DHT22;5880;52.342;9.662;2023-12-20T14:07:14;9.50;77.20
11647;DHT22;5880;52.342;9.662;2023-12-20T14:09:40;9.50;76.90
11647;DHT22;5880;52.342;9.662;2023-12-20T14:12:11;9.50;77.00
11647;DHT22;5880;52.342;9.662;2023-12-20T14:14:37;9.70;77.00
11647;DHT22;5880;52.342;9.662;2023-12-20T14:17:03;9.50;76.80
11647;DHT22;5880;52.342;9.662;2023-12-20T14:19:29;9.50;76.80
11647;DHT22;5880;52.342;9.662;2023-12-20T14:21:55;9.50;76.50
11647;DHT22;5880;52.342;9.662;2023-12-20T14:24:20;9.50;76.40
11647;DHT22;5880;52.342;9.662;2023-12-20T14:26:46;9.60;76.60
11647;DHT22;5880;52.342;9.662;2023-12-20T14:29:12;9.60;76.50
11647;DHT22;5880;52.342;9.662;2023-12-20T14:31:37;9.70;76.60
11647;DHT22;5880;52.342;9.662;2023-12-20T14:34:04;9.60;76.50
11647;DHT22;5880;52.342;9.662;2023-12-20T14:36:30;9.60;76.40
11647;DHT22;5880;52.342;9.662;2023-12-20T14:38:58;9.60;76.30
11647;DHT22;5880;52.342;9.662;2023-12-20T14:41:24;9.60;77.00
11647;DHT22;5880;52.342;9.662;2023-12-20T14:43:53;9.60;76.00
11647;DHT22;5880;52.342;9.662;2023-12-20T14:46:19;9.60;75.90
11647;DHT22;5880;52.342;9.662;2023-12-20T14:48:44;9.60;76.10
11647;DHT22;5880;52.342;9.662;2023-12-20T14:51:10;9.60;76.10
11647;DHT22;5880;52.342;9.662;2023-12-20T14:53:37;9.60;75.80
11647;DHT22;5880;52.342;9.662;2023-12-20T14:56:04;9.60;75.90
11647;DHT22;5880;52.342;9.662;2023-12-20T14:58:30;9.60;75.80
11647;DHT22;5880;52.342;9.662;2023-12-20T15:00:57;9.60;75.80
11647;DHT22;5880;52.342;9.662;2023-12-20T15:03:23;9.70;75.90
11647;DHT22;5880;52.342;9.662;2023-12-20T15:05:49;9.60;75.90
11647;DHT22;5880;52.342;9.662;2023-12-20T15:08:15;9.50;75.80
11647;DHT22;5880;52.342;9.662;2023-12-20T15:10:41;9.60;75.90
11647;DHT22;5880;52.342;9.662;2023-12-20T15:13:07;9.60;76.00
11647;DHT22;5880;52.342;9.662;2023-12-20T15:15:32;9.60;75.80
11647;DHT22;5880;52.342;9.662;2023-12-20T15:18:01;9.50;75.50
11647;DHT22;5880;52.342;9.662;2023-12-20T15:20:30;9.50;75.70
11647;DHT22;5880;52.342;9.662;2023-12-20T15:22:58;9.50;75.70
11647;DHT22;5880;52.342;9.662;2023-12-20T15:25:30;9.50;75.50
11647;DHT22;5880;52.342;9.662;2023-12-20T15:27:56;9.50;75.20
11647;DHT22;5880;52.342;9.662;2023-12-20T15:30:21;9.50;75.40
11647;DHT22;5880;52.342;9.662;2023-12-20T15:32:49;9.60;75.20
11647;DHT22;5880;52.342;9.662;2023-12-20T15:35:15;9.50;74.90
11647;DHT22;5880;52.342;9.662;2023-12-20T15:37:41;9.50;75.40
11647;DHT22;5880;52.342;9.662;2023-12-20T15:40:08;9.50;75.40
11647;DHT22;5880;52.342;9.662;2023-12-20T15:42:38;9.50;75.30
11647;DHT22;5880;52.342;9.662;2023-12-20T15:45:06;9.50;75.00
11647;DHT22;5880;52.342;9.662;2023-12-20T15:47:36;9.50;75.30
11647;DHT22;5880;52.342;9.662;2023-12-20T15:50:02;9.50;75.00
11647;DHT22;5880;52.342;9.662;2023-12-20T15:52:29;9.50;75.30
11647;DHT22;5880;52.342;9.662;2023-12-20T15:54:55;9.40;75.20
11647;DHT22;5880;52.342;9.662;2023-12-20T15:57:21;9.40;75.20
11647;DHT22;5880;52.342;9.662;2023-12-20T15:59:46;9.40;74.80
11647;DHT22;5880;52.342;9.662;2023-12-20T16:02:12;9.40;74.80
11647;DHT22;5880;52.342;9.662;2023-12-20T16:04:38;9.50;74.60